Time;durP1;ratioP1;P1;durP2;ratioP2;P2;SDS_P1;SDS_P2;PMS_P1;PMS_P2;Temp;Humidity;BMP_temperature;BMP_pressure;BME280_temperature;BME280_humidity;BME280_pressure;Samples;Min_cycle;Max_cycle;Signal;HPM_P1;HPM_P2
2024/04/05 00:02:03;;;;;;;1.75;1.08;;;;;;;;;;5094062;28;20238;-50
2024/04/05 00:04:30;;;;;;;1.27;1.00;;;;;;;;;;5093868;28;20208;-54
2024/04/05 00:06:58;;;;;;;1.20;1.10;;;;;;;;;;5094054;28;20219;-54
2024/04/05 00:09:26;;;;;;;1.33;1.10;;;;;;;;;;5077900;28;20196;-53
2024/04/05 00:11:52;;;;;;;2.25;1.10;;;;;;;;;;5093953;28;20319;-49
2024/04/05 00:14:20;;;;;;;3.17;1.58;;;;;;;;;;5093913;28;20291;-53
2024/04/05 00:16:46;;;;;;;3.83;1.48;;;;;;;;;;5093936;28;20650;-52
2024/04/05 00:19:13;;;;;;;2.35;1.45;;;;;;;;;;5093252;28;20228;-50
2024/04/05 00:21:40;;;;;;;1.65;1.10;;;;;;;;;;5093667;28;20598;-53
2024/04/05 00:24:09;;;;;;;2.20;1.50;;;;;;;;;;5087884;28;20204;-52
2024/04/05 00:26:36;;;;;;;2.08;1.30;;;;;;;;;;5093938;28;20211;-54
2024/04/05 00:29:03;;;;;;;1.10;1.00;;;;;;;;;;5093834;28;20663;-50
2024/04/05 00:31:30;;;;;;;3.65;1.40;;;;;;;;;;5093561;28;20225;-50
2024/04/05 00:33:57;;;;;;;1.50;1.02;;;;;;;;;;5093372;28;20208;-50
2024/04/05 00:36:24;;;;;;;1.27;1.00;;;;;;;;;;5092896;28;20204;-50
2024/04/05 00:38:52;;;;;;;3.97;1.30;;;;;;;;;;5093278;28;20232;-49
2024/04/05 00:41:20;;;;;;;2.88;1.63;;;;;;;;;;5090354;28;20225;-52
2024/04/05 00:43:47;;;;;;;1.17;1.08;;;;;;;;;;5087579;28;20204;-53
2024/04/05 00:46:13;;;;;;;4.20;1.30;;;;;;;;;;5082986;28;20208;-55
2024/04/05 00:48:41;;;;;;;1.02;0.90;;;;;;;;;;5087340;28;20701;-50
2024/04/05 00:51:08;;;;;;;2.83;1.27;;;;;;;;;;5093191;28;20613;-54
2024/04/05 00:53:36;;;;;;;2.17;1.00;;;;;;;;;;5082538;28;20690;-55
2024/04/05 00:56:03;;;;;;;1.95;1.10;;;;;;;;;;5090537;28;20556;-56
2024/04/05 00:58:33;;;;;;;2.05;0.90;;;;;;;;;;5088547;28;20224;-55
2024/04/05 01:00:59;;;;;;;1.15;0.90;;;;;;;;;;5089650;28;20810;-53
2024/04/05 01:03:27;;;;;;;1.27;1.05;;;;;;;;;;5084846;28;20592;-54
2024/04/05 01:05:54;;;;;;;2.13;1.30;;;;;;;;;;5085071;28;20205;-55
2024/04/05 01:08:21;;;;;;;0.85;0.85;;;;;;;;;;5084384;28;20215;-52
2024/04/05 01:10:48;;;;;;;1.40;0.98;;;;;;;;;;5092986;28;20228;-53
2024/04/05 01:13:16;;;;;;;2.40;1.05;;;;;;;;;;5090449;28;20204;-51
2024/04/05 01:15:44;;;;;;;1.92;1.80;;;;;;;;;;5087459;28;20215;-52
2024/04/05 01:18:12;;;;;;;3.85;1.65;;;;;;;;;;5090847;28;20686;-56
2024/04/05 01:20:39;;;;;;;1.20;1.00;;;;;;;;;;5072841;28;20205;-52
2024/04/05 01:23:10;;;;;;;3.05;1.15;;;;;;;;;;5083448;28;20201;-55
2024/04/05 01:25:37;;;;;;;2.15;1.33;;;;;;;;;;5086889;28;20295;-55
2024/04/05 01:28:15;;;;;;;1.50;1.10;;;;;;;;;;5091781;28;20204;-54
2024/04/05 01:30:41;;;;;;;1.17;0.90;;;;;;;;;;5072633;28;20730;-53
2024/04/05 01:33:08;;;;;;;2.15;1.35;;;;;;;;;;5071923;28;20201;-50
2024/04/05 01:35:35;;;;;;;2.15;1.40;;;;;;;;;;5072277;28;20200;-55
2024/04/05 01:38:03;;;;;;;1.63;1.00;;;;;;;;;;5072068;28;20197;-53
2024/04/05 01:40:29;;;;;;;2.35;1.17;;;;;;;;;;5072154;28;20203;-55
2024/04/05 01:42:58;;;;;;;2.03;1.33;;;;;;;;;;5071758;28;20197;-55
2024/04/05 01:45:24;;;;;;;1.98;1.30;;;;;;;;;;5059848;28;20226;-55
2024/04/05 01:47:52;;;;;;;1.83;1.20;;;;;;;;;;5092497;28;20231;-55
2024/04/05 01:50:19;;;;;;;1.52;1.10;;;;;;;;;;5089092;28;20219;-54
2024/04/05 01:52:48;;;;;;;2.25;1.42;;;;;;;;;;5071697;28;20232;-51
2024/04/05 01:55:15;;;;;;;1.75;1.05;;;;;;;;;;5071430;28;20201;-55
2024/04/05 01:57:43;;;;;;;2.03;1.00;;;;;;;;;;5071794;28;20204;-56
2024/04/05 02:00:11;;;;;;;1.02;0.93;;;;;;;;;;5080099;28;20228;-56
2024/04/05 02:02:39;;;;;;;1.60;1.02;;;;;;;;;;5077130;28;20220;-56
2024/04/05 02:05:06;;;;;;;2.95;0.93;;;;;;;;;;5091922;28;20207;-52
2024/04/05 02:07:33;;;;;;;1.67;0.93;;;;;;;;;;5078752;28;20296;-54
2024/04/05 02:10:00;;;;;;;2.47;1.35;;;;;;;;;;5079779;28;20579;-53
2024/04/05 02:12:29;;;;;;;2.38;1.13;;;;;;;;;;5071174;28;20224;-56
2024/04/05 02:14:56;;;;;;;4.53;1.60;;;;;;;;;;5071990;28;20659;-54
2024/04/05 02:17:25;;;;;;;3.88;1.98;;;;;;;;;;5071335;28;20682;-56
2024/04/05 02:19:52;;;;;;;1.00;0.90;;;;;;;;;;5078749;28;20232;-55
2024/04/05 02:22:19;;;;;;;1.00;0.90;;;;;;;;;;5091833;28;20224;-52
2024/04/05 02:24:45;;;;;;;2.58;1.10;;;;;;;;;;5071790;28;20205;-52
2024/04/05 02:27:16;;;;;;;1.65;1.00;;;;;;;;;;5071386;28;20592;-56
2024/04/05 02:29:42;;;;;;;3.88;1.92;;;;;;;;;;5071901;28;20600;-57
2024/04/05 02:32:10;;;;;;;1.20;1.10;;;;;;;;;;5071370;28;20220;-56
2024/04/05 02:34:38;;;;;;;2.20;1.73;;;;;;;;;;5084796;28;20204;-55
2024/04/05 02:37:05;;;;;;;3.38;1.80;;;;;;;;;;5091001;28;20659;-51
2024/04/05 02:39:32;;;;;;;1.95;1.10;;;;;;;;;;5076253;28;20231;-54
2024/04/05 02:41:59;;;;;;;2.42;1.20;;;;;;;;;;5091161;28;20765;-52
2024/04/05 02:44:26;;;;;;;3.25;1.40;;;;;;;;;;5071157;28;20211;-52
2024/04/05 02:46:54;;;;;;;3.13;1.13;;;;;;;;;;5078735;28;20200;-52
2024/04/05 02:49:20;;;;;;;2.05;1.30;;;;;;;;;;5071312;28;20594;-53
2024/04/05 02:51:49;;;;;;;1.95;1.30;;;;;;;;;;5071050;28;20316;-55
2024/04/05 02:54:16;;;;;;;2.05;1.20;;;;;;;;;;5071162;28;20212;-56
2024/04/05 02:56:43;;;;;;;5.90;1.50;;;;;;;;;;5070993;28;20196;-55
2024/04/05 02:59:09;;;;;;;2.58;1.27;;;;;;;;;;5070841;28;20240;-54
2024/04/05 03:01:37;;;;;;;1.40;1.30;;;;;;;;;;5070649;28;20232;-57
2024/04/05 03:04:03;;;;;;;4.95;1.38;;;;;;;;;;5071172;28;20363;-55
2024/04/05 03:06:31;;;;;;;1.48;1.33;;;;;;;;;;5072496;28;20204;-54
2024/04/05 03:08:59;;;;;;;1.55;1.33;;;;;;;;;;5075306;28;20576;-56
2024/04/05 03:11:26;;;;;;;1.95;1.40;;;;;;;;;;5079247;28;20868;-54
2024/04/05 03:13:53;;;;;;;3.17;1.20;;;;;;;;;;5087784;28;20201;-55
2024/04/05 03:16:20;;;;;;;2.88;1.23;;;;;;;;;;5086139;28;20206;-56
2024/04/05 03:18:47;;;;;;;0.88;0.88;;;;;;;;;;5087243;28;20197;-54
2024/04/05 03:21:14;;;;;;;3.40;1.33;;;;;;;;;;5076185;28;20807;-51
2024/04/05 03:23:41;;;;;;;1.67;1.40;;;;;;;;;;5081174;28;20208;-53
2024/04/05 03:26:10;;;;;;;1.80;1.20;;;;;;;;;;5074897;28;20200;-50
2024/04/05 03:28:36;;;;;;;1.75;1.30;;;;;;;;;;5078828;28;20585;-55
2024/04/05 03:31:05;;;;;;;2.47;1.15;;;;;;;;;;5078173;28;20215;-54
2024/04/05 03:33:32;;;;;;;2.38;1.70;;;;;;;;;;5068488;28;20196;-50
2024/04/05 03:36:04;;;;;;;2.75;1.33;;;;;;;;;;5075823;28;20197;-52
2024/04/05 03:38:32;;;;;;;3.15;1.50;;;;;;;;;;5069011;28;20197;-53
2024/04/05 03:41:02;;;;;;;2.55;1.75;;;;;;;;;;5075487;28;20224;-51
2024/04/05 03:43:31;;;;;;;2.40;1.70;;;;;;;;;;5082997;28;20197;-49
2024/04/05 03:45:58;;;;;;;1.73;1.33;;;;;;;;;;5083134;28;20714;-52
2024/04/05 03:48:25;;;;;;;1.65;1.13;;;;;;;;;;5075105;28;20211;-52
2024/04/05 03:50:53;;;;;;;2.80;1.20;;;;;;;;;;5075144;28;20629;-53
2024/04/05 03:53:21;;;;;;;2.28;1.15;;;;;;;;;;5081400;28;20201;-50
2024/04/05 03:55:48;;;;;;;2.75;1.40;;;;;;;;;;5075559;28;20200;-51
2024/04/05 03:58:15;;;;;;;1.77;1.20;;;;;;;;;;5075623;28;20197;-50
2024/04/05 04:00:50;;;;;;;3.28;1.40;;;;;;;;;;5075327;28;20228;-54
2024/04/05 04:03:18;;;;;;;2.08;1.33;;;;;;;;;;5077747;28;20204;-56
2024/04/05 04:05:44;;;;;;;2.85;1.27;;;;;;;;;;5080876;28;20203;-54
2024/04/05 04:08:12;;;;;;;2.60;1.90;;;;;;;;;;5075661;28;20201;-56
2024/04/05 04:10:39;;;;;;;2.75;1.67;;;;;;;;;;5075072;28;20193;-56
2024/04/05 04:13:06;;;;;;;4.40;1.98;;;;;;;;;;5075609;28;20650;-58
2024/04/05 04:15:34;;;;;;;2.85;2.38;;;;;;;;;;5075223;28;20540;-57
2024/04/05 04:18:03;;;;;;;3.55;1.75;;;;;;;;;;5082281;28;20204;-57
2024/04/05 04:20:29;;;;;;;3.47;1.60;;;;;;;;;;5066196;28;20651;-54
2024/04/05 04:22:57;;;;;;;2.90;1.83;;;;;;;;;;5086088;28;20246;-55
2024/04/05 04:25:23;;;;;;;2.45;1.55;;;;;;;;;;5078403;28;20287;-56
2024/04/05 04:27:52;;;;;;;1.67;1.25;;;;;;;;;;5093287;28;20192;-56
2024/04/05 04:30:18;;;;;;;2.90;1.55;;;;;;;;;;5092386;28;20207;-56
2024/04/05 04:32:47;;;;;;;4.72;2.65;;;;;;;;;;5093035;28;20311;-54
2024/04/05 04:35:15;;;;;;;4.43;1.55;;;;;;;;;;5093392;28;20579;-52
2024/04/05 04:37:42;;;;;;;4.60;1.45;;;;;;;;;;5093436;28;20200;-54
2024/04/05 04:40:11;;;;;;;1.98;1.60;;;;;;;;;;5093239;28;20231;-53
2024/04/05 04:42:38;;;;;;;1.55;1.33;;;;;;;;;;5093319;28;20220;-51
2024/04/05 04:45:06;;;;;;;2.85;1.50;;;;;;;;;;5093267;28;20204;-56
2024/04/05 04:47:34;;;;;;;2.83;1.75;;;;;;;;;;5093209;28;20219;-52
2024/04/05 04:50:00;;;;;;;2.17;1.48;;;;;;;;;;5089264;28;20805;-56
2024/04/05 04:52:29;;;;;;;2.90;1.70;;;;;;;;;;5091262;28;20222;-57
2024/04/05 04:54:56;;;;;;;2.90;2.17;;;;;;;;;;5084565;28;20203;-56
2024/04/05 04:57:24;;;;;;;2.97;1.38;;;;;;;;;;5092175;28;20197;-55
2024/04/05 04:59:51;;;;;;;3.33;1.67;;;;;;;;;;5092772;28;20200;-52
2024/04/05 05:02:18;;;;;;;3.28;1.63;;;;;;;;;;5085399;28;20216;-57
2024/04/05 05:04:45;;;;;;;7.72;2.38;;;;;;;;;;5093003;28;20208;-55
2024/04/05 05:07:12;;;;;;;1.98;1.30;;;;;;;;;;5092746;28;20204;-56
2024/04/05 05:09:40;;;;;;;2.58;1.38;;;;;;;;;;5085403;28;20216;-56
2024/04/05 05:12:08;;;;;;;3.45;1.75;;;;;;;;;;5085208;28;20235;-53
2024/04/05 05:14:35;;;;;;;4.97;2.28;;;;;;;;;;5085123;28;20197;-56
2024/04/05 05:17:05;;;;;;;3.53;2.10;;;;;;;;;;5092454;28;20223;-53
2024/04/05 05:19:31;;;;;;;2.75;1.52;;;;;;;;;;5093308;28;20197;-55
2024/04/05 05:21:59;;;;;;;4.13;1.70;;;;;;;;;;5088512;28;20594;-58
2024/04/05 05:24:25;;;;;;;3.78;1.48;;;;;;;;;;5078787;28;20204;-58
2024/04/05 05:26:54;;;;;;;9.93;1.80;;;;;;;;;;5088229;28;20707;-57
2024/04/05 05:29:21;;;;;;;3.53;1.75;;;;;;;;;;5090699;28;20705;-55
2024/04/05 05:31:48;;;;;;;2.72;1.52;;;;;;;;;;5092041;28;20579;-54
2024/04/05 05:34:14;;;;;;;2.00;1.88;;;;;;;;;;5091913;28;20206;-57
2024/04/05 05:36:42;;;;;;;2.80;1.58;;;;;;;;;;5092150;28;20291;-55
2024/04/05 05:39:11;;;;;;;1.83;1.40;;;;;;;;;;5091959;28;20595;-54
2024/04/05 05:41:39;;;;;;;1.95;1.52;;;;;;;;;;5092187;28;20609;-56
2024/04/05 05:44:07;;;;;;;1.50;1.40;;;;;;;;;;5091765;28;20200;-54
2024/04/05 05:46:34;;;;;;;1.42;1.25;;;;;;;;;;5076976;28;20204;-55
2024/04/05 05:49:00;;;;;;;4.00;1.60;;;;;;;;;;5089711;28;20682;-52
2024/04/05 05:51:28;;;;;;;1.33;1.23;;;;;;;;;;5087028;28;20343;-53
2024/04/05 05:53:55;;;;;;;2.88;1.40;;;;;;;;;;5080821;28;20641;-57
2024/04/05 05:56:23;;;;;;;1.88;1.40;;;;;;;;;;5091834;28;20289;-57
2024/04/05 05:58:49;;;;;;;1.50;1.40;;;;;;;;;;5091789;28;20581;-56
2024/04/05 06:01:18;;;;;;;2.90;1.70;;;;;;;;;;5090183;28;20248;-57
2024/04/05 06:03:45;;;;;;;2.92;1.70;;;;;;;;;;5086253;28;20196;-58
2024/04/05 06:06:12;;;;;;;3.03;1.85;;;;;;;;;;5083133;28;20291;-51
2024/04/05 06:08:40;;;;;;;2.47;1.50;;;;;;;;;;5090630;28;20675;-55
2024/04/05 06:11:08;;;;;;;2.60;1.85;;;;;;;;;;5091424;28;20224;-55
2024/04/05 06:13:34;;;;;;;1.88;1.50;;;;;;;;;;5077086;28;20200;-52
2024/04/05 06:16:02;;;;;;;3.10;1.50;;;;;;;;;;5091561;28;20644;-51
2024/04/05 06:18:29;;;;;;;5.00;2.53;;;;;;;;;;5091394;28;20196;-53
2024/04/05 06:20:59;;;;;;;1.92;1.70;;;;;;;;;;5087835;28;20632;-51
2024/04/05 06:23:26;;;;;;;3.28;2.00;;;;;;;;;;5084240;28;20196;-52
2024/04/05 06:25:55;;;;;;;3.55;2.10;;;;;;;;;;5085664;28;20585;-54
2024/04/05 06:28:22;;;;;;;4.53;1.98;;;;;;;;;;5091103;28;20210;-53
2024/04/05 06:30:50;;;;;;;5.43;1.77;;;;;;;;;;5090112;28;20337;-54
2024/04/05 06:33:16;;;;;;;1.90;1.35;;;;;;;;;;5091091;28;20698;-56
2024/04/05 06:35:45;;;;;;;5.38;2.10;;;;;;;;;;5084131;28;20204;-57
2024/04/05 06:38:12;;;;;;;2.95;1.90;;;;;;;;;;5091096;28;20287;-55
2024/04/05 06:40:40;;;;;;;2.88;1.63;;;;;;;;;;5090989;28;20201;-58
2024/04/05 06:43:07;;;;;;;3.70;2.00;;;;;;;;;;5090763;28;20413;-58
2024/04/05 06:45:34;;;;;;;2.72;2.00;;;;;;;;;;5091077;28;20270;-55
2024/04/05 06:48:01;;;;;;;3.22;1.80;;;;;;;;;;5089736;28;20207;-57
2024/04/05 06:50:32;;;;;;;2.72;1.95;;;;;;;;;;5085773;28;20212;-54
2024/04/05 06:53:01;;;;;;;2.05;1.67;;;;;;;;;;5085198;28;20691;-53
2024/04/05 06:55:29;;;;;;;2.92;1.60;;;;;;;;;;5086348;28;20239;-54
2024/04/05 06:57:56;;;;;;;3.95;2.15;;;;;;;;;;5089790;28;20215;-53
2024/04/05 07:00:25;;;;;;;2.45;2.20;;;;;;;;;;5083579;28;20287;-57
2024/04/05 07:02:52;;;;;;;2.75;1.42;;;;;;;;;;5090696;28;20217;-53
2024/04/05 07:05:19;;;;;;;7.50;2.15;;;;;;;;;;5090706;28;20205;-51
2024/04/05 07:07:46;;;;;;;2.97;1.70;;;;;;;;;;5091167;28;20196;-52
2024/04/05 07:10:14;;;;;;;1.90;1.35;;;;;;;;;;5089482;28;20211;-56
2024/04/05 07:12:43;;;;;;;2.70;1.58;;;;;;;;;;5090577;28;20212;-57
2024/04/05 07:15:11;;;;;;;5.57;3.25;;;;;;;;;;5089645;28;20636;-53
2024/04/05 07:17:37;;;;;;;4.63;2.33;;;;;;;;;;5091107;28;20199;-57
2024/04/05 07:20:06;;;;;;;2.25;1.30;;;;;;;;;;5086306;28;20648;-52
2024/04/05 07:22:32;;;;;;;2.00;1.65;;;;;;;;;;5086825;28;20259;-56
2024/04/05 07:25:00;;;;;;;3.22;1.63;;;;;;;;;;5082803;28;20279;-57
2024/04/05 07:27:28;;;;;;;3.00;1.90;;;;;;;;;;5079788;28;20204;-57
2024/04/05 07:29:55;;;;;;;3.38;1.73;;;;;;;;;;5086641;28;20665;-55
2024/04/05 07:32:21;;;;;;;2.78;1.90;;;;;;;;;;5090568;28;20220;-54
2024/04/05 07:34:49;;;;;;;3.67;2.33;;;;;;;;;;5090448;28;20211;-57
2024/04/05 07:37:15;;;;;;;4.15;2.10;;;;;;;;;;5089630;28;20200;-57
2024/04/05 07:39:44;;;;;;;2.25;1.80;;;;;;;;;;5085123;28;20283;-55
2024/04/05 07:42:11;;;;;;;2.15;1.90;;;;;;;;;;5090112;28;20600;-56
2024/04/05 07:44:40;;;;;;;1.40;1.30;;;;;;;;;;5089047;28;20201;-57
2024/04/05 07:47:06;;;;;;;1.80;1.63;;;;;;;;;;5090189;28;20663;-55
2024/04/05 07:49:34;;;;;;;3.63;1.80;;;;;;;;;;5090291;28;20204;-56
2024/04/05 07:52:00;;;;;;;3.65;1.80;;;;;;;;;;5083871;28;20212;-53
2024/04/05 07:54:28;;;;;;;3.67;2.22;;;;;;;;;;5082277;28;20640;-51
2024/04/05 07:56:54;;;;;;;1.58;1.48;;;;;;;;;;5094205;28;20622;-51
2024/04/05 07:59:22;;;;;;;3.80;1.67;;;;;;;;;;5093908;28;20215;-55
2024/04/05 08:01:50;;;;;;;1.65;1.55;;;;;;;;;;5093786;28;20228;-53
2024/04/05 08:04:17;;;;;;;1.65;1.55;;;;;;;;;;5093736;28;20215;-53
2024/04/05 08:06:44;;;;;;;2.75;1.70;;;;;;;;;;5094056;28;20200;-53
2024/04/05 08:09:12;;;;;;;3.80;1.77;;;;;;;;;;5093716;28;20228;-51
2024/04/05 08:11:38;;;;;;;1.85;1.75;;;;;;;;;;5093842;28;20569;-53
2024/04/05 08:14:07;;;;;;;2.05;1.63;;;;;;;;;;5093250;28;20307;-52
2024/04/05 08:16:34;;;;;;;2.63;1.83;;;;;;;;;;5093894;28;20261;-54
2024/04/05 08:19:03;;;;;;;6.13;1.95;;;;;;;;;;5093650;28;20232;-55
2024/04/05 08:21:29;;;;;;;3.45;1.90;;;;;;;;;;5089638;28;20232;-55
2024/04/05 08:23:56;;;;;;;3.47;2.15;;;;;;;;;;5083349;28;20571;-55
2024/04/05 08:26:23;;;;;;;2.85;1.70;;;;;;;;;;5093223;28;20200;-55
2024/04/05 08:28:50;;;;;;;2.15;1.75;;;;;;;;;;5093395;28;20224;-50
2024/04/05 08:31:17;;;;;;;4.15;1.95;;;;;;;;;;5093374;28;20226;-49
2024/04/05 08:33:46;;;;;;;2.33;1.45;;;;;;;;;;5093841;28;20192;-52
2024/04/05 08:36:14;;;;;;;3.45;1.40;;;;;;;;;;5092262;28;20729;-54
2024/04/05 08:38:43;;;;;;;3.03;1.90;;;;;;;;;;5092095;28;20224;-51
2024/04/05 08:41:10;;;;;;;3.78;2.97;;;;;;;;;;5093484;28;20227;-51
2024/04/05 08:43:41;;;;;;;2.63;1.85;;;;;;;;;;5079962;28;20227;-50
2024/04/05 08:46:08;;;;;;;2.78;2.40;;;;;;;;;;5093361;28;20206;-49
2024/04/05 08:48:36;;;;;;;2.28;1.77;;;;;;;;;;5079750;28;20196;-54
2024/04/05 08:51:05;;;;;;;4.88;1.98;;;;;;;;;;5089131;28;20578;-49
2024/04/05 08:53:34;;;;;;;2.20;1.55;;;;;;;;;;5086318;28;20195;-54
2024/04/05 08:56:01;;;;;;;2.58;1.60;;;;;;;;;;5089690;28;20196;-53
2024/04/05 08:58:30;;;;;;;5.80;1.77;;;;;;;;;;5093330;28;20201;-50
2024/04/05 09:00:57;;;;;;;2.13;1.88;;;;;;;;;;5093324;28;20307;-53
2024/04/05 09:03:24;;;;;;;3.10;1.65;;;;;;;;;;5092715;28;20307;-50
2024/04/05 09:05:51;;;;;;;2.63;2.00;;;;;;;;;;5092766;28;20572;-50
2024/04/05 09:08:21;;;;;;;4.28;1.90;;;;;;;;;;5092605;28;20205;-50
2024/04/05 09:10:51;;;;;;;1.98;1.77;;;;;;;;;;5092982;28;20220;-50
2024/04/05 09:13:20;;;;;;;4.95;1.75;;;;;;;;;;5092394;28;20193;-50
2024/04/05 09:15:51;;;;;;;2.42;1.95;;;;;;;;;;5092976;28;20643;-50
2024/04/05 09:18:28;;;;;;;4.85;1.80;;;;;;;;;;5092580;28;20204;-51
2024/04/05 09:20:55;;;;;;;3.53;1.73;;;;;;;;;;5088601;28;20220;-53
2024/04/05 09:23:23;;;;;;;2.70;2.38;;;;;;;;;;5090972;28;20220;-50
2024/04/05 09:26:02;;;;;;;4.32;2.08;;;;;;;;;;5068999;28;20201;-50
2024/04/05 09:28:30;;;;;;;1.60;1.33;;;;;;;;;;5052801;28;20835;-51
2024/04/05 09:30:57;;;;;;;3.53;2.38;;;;;;;;;;5052383;28;20248;-51
2024/04/05 09:33:25;;;;;;;2.25;1.40;;;;;;;;;;5052175;28;20212;-49
2024/04/05 09:35:54;;;;;;;4.40;1.80;;;;;;;;;;5066251;28;20769;-49
2024/04/05 09:38:23;;;;;;;2.00;1.63;;;;;;;;;;5054657;28;20213;-52
2024/04/05 09:40:50;;;;;;;4.72;1.77;;;;;;;;;;5052705;28;20591;-50
2024/04/05 09:43:19;;;;;;;3.53;1.98;;;;;;;;;;5052028;28;20224;-50
2024/04/05 09:45:47;;;;;;;2.63;1.40;;;;;;;;;;5051925;28;20210;-51
2024/04/05 09:48:16;;;;;;;3.25;1.50;;;;;;;;;;5052286;28;20204;-50
2024/04/05 09:50:42;;;;;;;2.78;1.50;;;;;;;;;;5052145;28;20259;-50
2024/04/05 09:53:10;;;;;;;1.95;1.58;;;;;;;;;;5052603;28;20197;-50
2024/04/05 09:55:39;;;;;;;3.08;2.03;;;;;;;;;;5069615;28;20204;-49
2024/04/05 09:58:07;;;;;;;1.75;1.60;;;;;;;;;;5071836;28;20209;-49
2024/04/05 10:00:36;;;;;;;2.10;1.60;;;;;;;;;;5072024;28;20201;-51
2024/04/05 10:03:05;;;;;;;2.33;1.60;;;;;;;;;;5072046;28;20270;-53
2024/04/05 10:05:33;;;;;;;2.28;1.60;;;;;;;;;;5081072;28;20295;-54
2024/04/05 10:08:10;;;;;;;2.72;1.75;;;;;;;;;;5075143;28;20596;-51
2024/04/05 10:10:37;;;;;;;3.38;1.40;;;;;;;;;;5058963;28;20196;-50
2024/04/05 10:13:15;;;;;;;2.42;1.50;;;;;;;;;;5081475;28;20205;-53
2024/04/05 10:15:54;;;;;;;3.35;1.52;;;;;;;;;;5059774;28;20557;-51
2024/04/05 10:18:26;;;;;;;2.80;1.30;;;;;;;;;;5072430;28;20258;-50
2024/04/05 10:21:03;;;;;;;3.63;1.40;;;;;;;;;;5054929;28;20267;-50
2024/04/05 10:23:32;;;;;;;2.67;1.60;;;;;;;;;;5078850;28;20881;-50
2024/04/05 10:25:58;;;;;;;3.53;2.15;;;;;;;;;;5061950;28;20628;-50
2024/04/05 10:28:25;;;;;;;1.85;1.30;;;;;;;;;;5079664;28;20203;-53
2024/04/05 10:30:54;;;;;;;2.92;1.50;;;;;;;;;;5079783;28;20709;-49
2024/04/05 10:33:22;;;;;;;2.90;1.48;;;;;;;;;;5073987;28;20216;-52
2024/04/05 10:35:49;;;;;;;1.80;1.13;;;;;;;;;;5083300;28;20200;-54
2024/04/05 10:38:18;;;;;;;4.30;1.50;;;;;;;;;;5082470;28;20201;-54
2024/04/05 10:40:55;;;;;;;3.85;1.45;;;;;;;;;;5078212;28;20332;-54
2024/04/05 10:43:22;;;;;;;3.70;1.20;;;;;;;;;;5079730;28;20223;-55
2024/04/05 10:45:54;;;;;;;3.83;1.52;;;;;;;;;;5058137;28;20197;-50
2024/04/05 10:48:22;;;;;;;1.67;1.10;;;;;;;;;;5065832;28;20203;-52
2024/04/05 10:50:49;;;;;;;2.03;1.20;;;;;;;;;;5075204;28;20282;-54
2024/04/05 10:53:17;;;;;;;2.50;1.23;;;;;;;;;;5071771;28;20647;-51
2024/04/05 10:55:44;;;;;;;3.38;1.48;;;;;;;;;;5072527;28;20206;-54
2024/04/05 10:58:13;;;;;;;1.70;1.30;;;;;;;;;;5085261;28;20654;-51
2024/04/05 11:00:40;;;;;;;2.78;1.40;;;;;;;;;;5091532;28;20196;-52
2024/04/05 11:03:10;;;;;;;3.35;1.77;;;;;;;;;;5073297;28;20235;-49
2024/04/05 11:05:37;;;;;;;3.35;1.30;;;;;;;;;;5074857;28;20208;-51
2024/04/05 11:08:08;;;;;;;2.35;1.27;;;;;;;;;;5090510;28;20291;-53
2024/04/05 11:10:36;;;;;;;2.15;1.10;;;;;;;;;;5090780;28;20878;-50
2024/04/05 11:13:18;;;;;;;3.80;2.00;;;;;;;;;;5090760;28;20582;-50
2024/04/05 11:15:45;;;;;;;1.33;1.23;;;;;;;;;;5089685;28;20200;-49
2024/04/05 11:18:15;;;;;;;1.77;1.17;;;;;;;;;;5090895;28;20200;-52
2024/04/05 11:20:42;;;;;;;4.65;1.27;;;;;;;;;;5062385;28;20204;-54
2024/04/05 11:23:17;;;;;;;2.63;1.48;;;;;;;;;;5080057;28;20290;-49
2024/04/05 11:25:52;;;;;;;2.80;1.30;;;;;;;;;;5084614;28;20200;-49
2024/04/05 11:28:22;;;;;;;2.83;1.55;;;;;;;;;;5093222;28;20286;-50
2024/04/05 11:30:49;;;;;;;2.72;1.13;;;;;;;;;;5094759;28;20216;-49
2024/04/05 11:33:18;;;;;;;1.88;1.20;;;;;;;;;;5094162;28;20216;-54
2024/04/05 11:35:45;;;;;;;4.65;1.50;;;;;;;;;;5094605;28;20211;-54
2024/04/05 11:38:13;;;;;;;3.47;1.48;;;;;;;;;;5094512;28;20206;-53
2024/04/05 11:40:39;;;;;;;1.88;1.30;;;;;;;;;;5094316;28;20718;-51
2024/04/05 11:43:08;;;;;;;6.82;1.30;;;;;;;;;;5092104;28;20206;-53
2024/04/05 11:45:35;;;;;;;3.42;1.23;;;;;;;;;;5091629;28;20288;-52
2024/04/05 11:48:02;;;;;;;1.17;1.00;;;;;;;;;;5089236;28;20573;-50
2024/04/05 11:50:33;;;;;;;3.60;1.40;;;;;;;;;;5087758;28;20208;-51
2024/04/05 11:53:01;;;;;;;1.00;0.70;;;;;;;;;;5088127;28;20570;-53
2024/04/05 11:55:27;;;;;;;1.77;1.40;;;;;;;;;;5087819;28;20208;-51
2024/04/05 11:57:55;;;;;;;0.90;0.90;;;;;;;;;;5094138;28;20618;-49
2024/04/05 12:00:21;;;;;;;1.17;1.05;;;;;;;;;;5091888;28;20545;-50
2024/04/05 12:02:49;;;;;;;6.60;1.80;;;;;;;;;;5088222;28;20311;-49
2024/04/05 12:05:16;;;;;;;1.55;1.30;;;;;;;;;;5093832;28;20216;-50
2024/04/05 12:07:48;;;;;;;1.77;1.30;;;;;;;;;;5094063;28;20204;-53
2024/04/05 12:10:14;;;;;;;0.85;0.85;;;;;;;;;;5092193;28;20201;-53
2024/04/05 12:12:42;;;;;;;1.65;1.10;;;;;;;;;;5093505;28;20280;-52
2024/04/05 12:15:08;;;;;;;1.80;1.65;;;;;;;;;;5094084;28;20731;-51
2024/04/05 12:17:37;;;;;;;1.08;1.00;;;;;;;;;;5074597;28;20193;-54
2024/04/05 12:20:05;;;;;;;2.60;1.77;;;;;;;;;;5073849;28;20562;-53
2024/04/05 12:22:32;;;;;;;1.52;0.82;;;;;;;;;;5082394;28;20229;-54
2024/04/05 12:25:02;;;;;;;1.40;0.98;;;;;;;;;;5081013;28;20570;-51
2024/04/05 12:27:29;;;;;;;1.40;1.00;;;;;;;;;;5074065;28;20668;-49
2024/04/05 12:29:56;;;;;;;1.65;1.55;;;;;;;;;;5073940;28;20209;-49
2024/04/05 12:32:24;;;;;;;0.90;0.90;;;;;;;;;;5081693;28;20224;-53
2024/04/05 12:34:52;;;;;;;1.77;1.23;;;;;;;;;;5075447;28;20246;-49
2024/04/05 12:37:22;;;;;;;2.58;1.10;;;;;;;;;;5074476;28;20201;-49
2024/04/05 12:39:50;;;;;;;5.13;1.95;;;;;;;;;;5085015;28;20201;-50
2024/04/05 12:42:19;;;;;;;1.02;1.02;;;;;;;;;;5074637;28;20701;-51
2024/04/05 12:44:47;;;;;;;0.90;0.90;;;;;;;;;;5073692;28;20220;-54
2024/04/05 12:47:14;;;;;;;1.23;1.13;;;;;;;;;;5085401;28;20242;-55
2024/04/05 12:49:42;;;;;;;3.00;1.50;;;;;;;;;;5081185;28;20209;-52
2024/04/05 12:52:10;;;;;;;2.20;0.80;;;;;;;;;;5089873;28;20246;-53
2024/04/05 12:54:36;;;;;;;3.75;1.35;;;;;;;;;;5076514;28;20670;-53
2024/04/05 12:57:04;;;;;;;2.97;1.10;;;;;;;;;;5087330;28;20258;-49
2024/04/05 12:59:32;;;;;;;1.73;1.35;;;;;;;;;;5093815;28;20204;-52
2024/04/05 13:02:00;;;;;;;1.88;1.00;;;;;;;;;;5086787;28;20692;-50
2024/04/05 13:04:26;;;;;;;1.30;1.10;;;;;;;;;;5087217;28;20322;-51
2024/04/05 13:06:56;;;;;;;1.25;1.00;;;;;;;;;;5072466;28;20211;-53
2024/04/05 13:09:23;;;;;;;1.95;1.10;;;;;;;;;;5079675;28;20583;-49
2024/04/05 13:11:50;;;;;;;1.55;1.17;;;;;;;;;;5079916;28;20235;-53
2024/04/05 13:14:17;;;;;;;1.20;1.10;;;;;;;;;;5073506;28;20215;-52
2024/04/05 13:16:46;;;;;;;2.08;1.02;;;;;;;;;;5072815;28;20702;-50
2024/04/05 13:19:13;;;;;;;2.28;1.20;;;;;;;;;;5070322;28;20207;-52
2024/04/05 13:21:40;;;;;;;3.42;1.67;;;;;;;;;;5084105;28;20216;-51
2024/04/05 13:24:07;;;;;;;1.52;1.30;;;;;;;;;;5087572;28;20213;-51
2024/04/05 13:26:34;;;;;;;3.40;1.98;;;;;;;;;;5072332;28;20193;-50
2024/04/05 13:29:01;;;;;;;1.13;1.05;;;;;;;;;;5066126;28;20196;-50
2024/04/05 13:31:30;;;;;;;1.30;1.20;;;;;;;;;;5053786;28;20308;-51
2024/04/05 13:34:00;;;;;;;1.90;1.08;;;;;;;;;;5078221;28;20235;-55
2024/04/05 13:36:27;;;;;;;1.52;1.10;;;;;;;;;;5088106;28;20204;-54
2024/04/05 13:38:54;;;;;;;1.00;1.00;;;;;;;;;;5087684;28;20223;-56
2024/04/05 13:41:21;;;;;;;2.65;1.38;;;;;;;;;;5075338;28;20279;-51
2024/04/05 13:43:48;;;;;;;2.50;1.10;;;;;;;;;;5083654;28;20197;-55
2024/04/05 13:46:21;;;;;;;1.88;1.15;;;;;;;;;;5075573;28;20258;-56
2024/04/05 13:48:49;;;;;;;4.43;1.10;;;;;;;;;;5090148;28;20287;-55
2024/04/05 13:51:18;;;;;;;2.10;1.10;;;;;;;;;;5074180;28;20784;-55
2024/04/05 13:53:44;;;;;;;1.58;1.17;;;;;;;;;;5081904;28;20208;-57
2024/04/05 13:56:12;;;;;;;2.85;2.35;;;;;;;;;;5081401;28;20588;-57
2024/04/05 13:58:40;;;;;;;1.42;1.25;;;;;;;;;;5092167;28;20230;-57
2024/04/05 14:01:09;;;;;;;2.17;1.50;;;;;;;;;;5082242;28;20781;-56
2024/04/05 14:03:36;;;;;;;1.10;1.10;;;;;;;;;;5077084;28;20259;-53
2024/04/05 14:06:04;;;;;;;1.90;0.98;;;;;;;;;;5075349;28;20219;-57
2024/04/05 14:08:32;;;;;;;1.95;1.50;;;;;;;;;;5091834;28;20208;-53
2024/04/05 14:11:00;;;;;;;2.55;1.55;;;;;;;;;;5091619;28;20703;-56
2024/04/05 14:13:27;;;;;;;1.33;1.10;;;;;;;;;;5077501;28;20235;-55
2024/04/05 14:15:58;;;;;;;2.42;1.42;;;;;;;;;;5085475;28;20199;-55
2024/04/05 14:18:25;;;;;;;1.25;1.15;;;;;;;;;;5075387;28;20204;-54
2024/04/05 14:20:53;;;;;;;2.15;1.20;;;;;;;;;;5084025;28;20216;-57
2024/04/05 14:23:19;;;;;;;1.40;1.00;;;;;;;;;;5085641;28;20231;-54
2024/04/05 14:25:53;;;;;;;1.98;1.10;;;;;;;;;;5079884;28;20247;-55
2024/04/05 14:28:19;;;;;;;1.35;0.95;;;;;;;;;;5089371;28;20223;-55
2024/04/05 14:30:55;;;;;;;1.63;1.23;;;;;;;;;;5083056;28;20612;-58
2024/04/05 14:33:22;;;;;;;1.58;1.48;;;;;;;;;;5088992;28;20203;-54
2024/04/05 14:35:58;;;;;;;0.95;0.73;;;;;;;;;;5080538;28;20197;-58
2024/04/05 14:38:25;;;;;;;1.33;1.10;;;;;;;;;;5074688;28;20204;-57
2024/04/05 14:40:54;;;;;;;1.08;0.93;;;;;;;;;;5076870;28;20240;-57
2024/04/05 14:43:21;;;;;;;0.98;0.90;;;;;;;;;;5080298;28;20204;-57
2024/04/05 14:45:58;;;;;;;1.85;1.10;;;;;;;;;;5088882;28;20653;-56
2024/04/05 14:48:25;;;;;;;1.65;0.98;;;;;;;;;;5080777;28;20200;-57